Time;durP1;ratioP1;P1;durP2;ratioP2;P2;SDS_P1;SDS_P2;PMS_P1;PMS_P2;Temp;Humidity;BMP_temperature;BMP_pressure;BME280_temperature;BME280_humidity;BME280_pressure;Samples;Min_cycle;Max_cycle;Signal;HPM_P1;HPM_P2
2021/09/16 00:03:08;;;;;;;20.48;13.30;;;;;;;20.09;54.16;99920.98;2282799;86;25720;-77
2021/09/16 00:06:29;;;;;;;19.32;12.93;;;;;;;20.07;54.22;99932.50;2282242;86;25644;-75
2021/09/16 00:09:52;;;;;;;16.57;12.45;;;;;;;20.04;54.24;99917.55;2263349;86;25640;-76
2021/09/16 00:13:13;;;;;;;15.70;12.40;;;;;;;20.04;54.31;99924.16;2242162;88;25711;-84
2021/09/16 00:16:34;;;;;;;17.07;12.05;;;;;;;20.01;54.34;99918.52;2242626;87;25695;-76
2021/09/16 00:19:55;;;;;;;17.70;12.10;;;;;;;20.00;54.38;99919.39;2240697;87;25766;-80
2021/09/16 00:23:16;;;;;;;13.20;11.15;;;;;;;19.99;54.43;99916.80;2243009;87;25640;-76
2021/09/16 00:26:37;;;;;;;15.58;11.90;;;;;;;19.98;54.39;99909.75;2241291;87;25722;-89
2021/09/16 00:29:58;;;;;;;16.10;11.05;;;;;;;19.97;54.44;99894.33;2241190;88;25617;-75
2021/09/16 00:33:21;;;;;;;15.03;12.45;;;;;;;19.95;54.51;99896.61;2242905;87;25686;-76
2021/09/16 00:36:42;;;;;;;21.57;13.62;;;;;;;19.93;54.52;99895.31;2239756;88;25826;-77
2021/09/16 00:40:07;;;;;;;14.07;11.38;;;;;;;19.91;54.49;99893.17;2241163;87;31413;-77
2021/09/16 00:43:28;;;;;;;16.97;11.28;;;;;;;19.92;54.52;99890.06;2240290;87;25821;-76
2021/09/16 00:46:50;;;;;;;16.50;11.60;;;;;;;19.91;54.59;99892.27;2242775;87;30990;-76
2021/09/16 00:50:20;;;;;;;13.15;10.72;;;;;;;19.90;54.60;99885.25;2231157;87;25783;-77
2021/09/16 00:53:47;;;;;;;15.53;10.85;;;;;;;19.90;54.60;99879.50;2238413;88;25256;-77
2021/09/16 00:57:15;;;;;;;14.90;11.10;;;;;;;19.90;54.59;99879.96;2242922;88;25699;-79
2021/09/16 01:00:38;;;;;;;17.77;10.95;;;;;;;19.90;54.59;99878.63;2153020;91;25665;-76
2021/09/16 01:04:08;;;;;;;12.93;11.20;;;;;;;19.88;54.65;99874.72;2157683;91;31043;-88
2021/09/16 01:07:31;;;;;;;15.35;10.18;;;;;;;19.87;54.60;99870.77;2160053;91;26551;-75
2021/09/16 01:10:52;;;;;;;15.53;10.75;;;;;;;19.90;54.63;99882.61;2163069;90;25801;-76
2021/09/16 01:14:26;;;;;;;16.02;11.00;;;;;;;19.88;54.65;99874.72;2163341;91;26527;-75
2021/09/16 01:17:49;;;;;;;11.22;10.13;;;;;;;19.89;54.62;99866.33;2159581;91;25831;-87
2021/09/16 01:21:10;;;;;;;13.30;10.30;;;;;;;19.87;54.64;99872.95;2155198;91;25950;-79
2021/09/16 01:24:37;;;;;;;20.25;10.53;;;;;;;19.84;54.67;99874.34;2189686;88;30900;-76
2021/09/16 01:28:03;;;;;;;14.30;10.20;;;;;;;19.83;54.70;99863.36;2225825;88;25735;-87
2021/09/16 01:32:00;;;;;;;12.18;10.68;;;;;;;19.80;54.72;99864.28;2228062;88;25610;-76
2021/09/16 01:35:22;;;;;;;15.13;9.65;;;;;;;19.80;54.76;99861.64;2224972;86;25862;-74
2021/09/16 01:38:56;;;;;;;13.53;10.60;;;;;;;19.78;54.73;99861.28;2268292;86;25624;-84
2021/09/16 01:42:17;;;;;;;20.77;9.90;;;;;;;19.77;54.77;99854.23;2204094;88;25764;-76
2021/09/16 01:45:40;;;;;;;17.75;10.95;;;;;;;19.75;54.76;99854.28;2204069;89;25751;-85
2021/09/16 01:49:05;;;;;;;11.48;9.70;;;;;;;19.74;54.83;99855.61;2198292;89;30869;-75
2021/09/16 01:52:26;;;;;;;16.15;10.38;;;;;;;19.71;54.86;99846.00;2197608;88;25265;-74
2021/09/16 01:59:21;;;;;;;11.78;9.58;;;;;;;19.72;54.91;99839.80;2134455;90;26081;-89
2021/09/16 02:02:42;;;;;;;15.45;10.45;;;;;;;19.71;54.97;99839.39;2137588;90;25750;-75
2021/09/16 02:06:03;;;;;;;11.30;9.78;;;;;;;19.71;54.95;99837.17;2147563;92;25889;-75
2021/09/16 02:09:29;;;;;;;20.20;11.30;;;;;;;19.70;55.00;99840.73;2146399;92;25928;-76
2021/09/16 02:12:50;;;;;;;12.37;9.35;;;;;;;19.68;54.99;99842.10;2136485;90;25634;-75
2021/09/16 02:16:11;;;;;;;12.30;11.00;;;;;;;19.70;55.02;99834.98;2138327;92;31448;-75
2021/09/16 02:19:32;;;;;;;13.13;9.73;;;;;;;19.71;55.03;99831.88;2119425;92;25286;-75
2021/09/16 02:22:53;;;;;;;11.85;10.65;;;;;;;19.70;55.08;99824.86;2105681;94;30911;-81
2021/09/16 02:26:14;;;;;;;13.45;10.32;;;;;;;19.65;55.11;99828.94;2105797;94;26424;-77
2021/09/16 02:29:35;;;;;;;15.38;10.13;;;;;;;19.65;55.10;99816.18;2105091;94;25756;-75
2021/09/16 02:33:06;;;;;;;15.30;10.58;;;;;;;19.64;55.17;99815.31;2104039;94;25676;-74
2021/09/16 02:36:27;;;;;;;12.63;10.53;;;;;;;19.62;55.25;99813.56;2062172;92;25341;-78
2021/09/16 02:39:47;;;;;;;14.10;10.23;;;;;;;19.58;55.29;99809.66;2122510;93;28221;-83
2021/09/16 02:43:08;;;;;;;13.35;10.30;;;;;;;19.57;55.38;99807.04;2122281;92;25828;-74
2021/09/16 02:46:30;;;;;;;13.58;10.08;;;;;;;19.56;55.46;99802.20;2122767;93;26108;-75
2021/09/16 02:49:51;;;;;;;17.27;11.50;;;;;;;19.55;55.40;99795.19;2142517;91;25723;-78
2021/09/16 02:53:11;;;;;;;14.28;11.15;;;;;;;19.54;55.54;99797.42;2122092;93;31331;-81
2021/09/16 02:56:32;;;;;;;14.58;11.38;;;;;;;19.54;55.57;99792.14;2153567;91;31355;-80
2021/09/16 02:59:56;;;;;;;13.87;10.40;;;;;;;19.52;55.58;99793.94;2155439;91;31537;-85
2021/09/16 03:03:17;;;;;;;14.03;11.08;;;;;;;19.55;55.59;99795.65;2150226;91;25730;-74
2021/09/16 03:06:50;;;;;;;15.13;11.05;;;;;;;19.54;55.62;99795.20;2143963;91;30845;-86
2021/09/16 03:10:13;;;;;;;12.98;10.23;;;;;;;19.53;55.65;99783.77;2148930;91;25868;-75
2021/09/16 03:13:34;;;;;;;17.55;10.32;;;;;;;19.53;55.69;99789.05;2206207;88;25756;-75
2021/09/16 03:16:54;;;;;;;14.38;10.13;;;;;;;19.52;55.64;99795.71;2243133;88;31339;-75
2021/09/16 03:20:15;;;;;;;11.75;10.50;;;;;;;19.50;55.70;99789.58;2241362;87;31105;-75
2021/09/16 03:23:36;;;;;;;16.62;11.50;;;;;;;19.46;55.79;99782.17;2232263;87;25663;-75
2021/09/16 03:26:57;;;;;;;19.12;12.25;;;;;;;19.44;55.78;99780.45;2242650;88;26358;-88
2021/09/16 03:30:18;;;;;;;15.23;12.23;;;;;;;19.44;55.90;99787.06;2242878;87;25717;-75
2021/09/16 03:33:58;;;;;;;13.75;11.40;;;;;;;19.40;55.98;99778.80;2240503;88;25919;-75
2021/09/16 03:37:19;;;;;;;18.85;12.05;;;;;;;19.39;56.01;99773.96;2215987;88;25846;-74
2021/09/16 03:40:41;;;;;;;14.05;10.28;;;;;;;19.38;56.05;99770.91;2243148;86;25722;-74
2021/09/16 03:44:01;;;;;;;13.48;10.98;;;;;;;19.35;56.12;99767.88;2243173;87;25626;-79
2021/09/16 03:47:22;;;;;;;16.97;11.50;;;;;;;19.33;56.20;99766.16;2241719;87;30802;-77
2021/09/16 03:50:43;;;;;;;16.07;11.50;;;;;;;19.31;56.28;99768.85;2243328;88;25650;-75
2021/09/16 03:54:04;;;;;;;22.85;11.65;;;;;;;19.28;56.39;99764.09;2242997;88;25710;-75
2021/09/16 03:57:25;;;;;;;20.17;11.20;;;;;;;19.26;56.43;99756.63;2242797;88;25630;-79
2021/09/16 04:00:46;;;;;;;12.13;9.48;;;;;;;19.27;56.46;99757.04;2242692;88;25597;-75
2021/09/16 04:04:06;;;;;;;16.07;11.30;;;;;;;19.24;56.52;99756.68;2243238;87;25725;-75
2021/09/16 04:07:27;;;;;;;18.02;10.23;;;;;;;19.23;56.55;99749.63;2242869;87;25853;-84
2021/09/16 04:10:48;;;;;;;10.78;9.68;;;;;;;19.23;56.58;99750.09;2244299;87;30845;-75
2021/09/16 04:14:09;;;;;;;11.88;10.53;;;;;;;19.24;56.66;99750.07;2245198;88;30909;-75
2021/09/16 04:17:30;;;;;;;15.32;10.70;;;;;;;19.23;56.73;99752.73;2216419;88;31410;-87
2021/09/16 04:20:51;;;;;;;11.03;9.08;;;;;;;19.19;56.73;99752.39;2282302;86;31269;-75
2021/09/16 04:24:13;;;;;;;18.45;10.58;;;;;;;19.18;56.83;99754.16;2282246;86;25724;-75
2021/09/16 04:27:35;;;;;;;18.15;10.10;;;;;;;19.17;56.86;99751.11;2277553;86;25629;-75
2021/09/16 04:30:55;;;;;;;13.58;11.05;;;;;;;19.17;56.96;99749.80;2282683;86;31314;-75
2021/09/16 04:34:16;;;;;;;17.82;11.12;;;;;;;19.17;57.06;99748.47;2281395;86;31393;-74
2021/09/16 04:37:37;;;;;;;20.70;10.72;;;;;;;19.17;57.12;99751.11;2282361;86;25765;-79
2021/09/16 04:41:01;;;;;;;15.43;10.15;;;;;;;19.17;57.15;99749.80;2282642;86;25801;-74
2021/09/16 04:44:22;;;;;;;17.42;11.20;;;;;;;19.17;57.21;99744.51;2281938;86;25818;-81
2021/09/16 04:47:52;;;;;;;13.15;9.98;;;;;;;19.19;57.31;99747.97;2276118;86;30831;-74
2021/09/16 04:51:13;;;;;;;13.13;10.45;;;;;;;19.18;57.34;99743.59;2275074;86;25682;-77
2021/09/16 04:54:34;;;;;;;15.90;10.08;;;;;;;19.20;57.44;99751.02;2282991;86;31476;-77
2021/09/16 04:57:55;;;;;;;14.87;10.70;;;;;;;19.21;57.42;99754.10;2282873;86;25709;-76
2021/09/16 05:01:16;;;;;;;15.85;10.35;;;;;;;19.22;57.41;99751.86;2282235;86;25672;-75
2021/09/16 05:05:27;;;;;;;15.80;11.10;;;;;;;19.22;57.55;99747.04;2275463;86;25612;-74
2021/09/16 05:09:05;;;;;;;13.53;10.15;;;;;;;19.22;57.61;99747.91;2275612;86;25944;-75
2021/09/16 05:12:26;;;;;;;22.20;10.43;;;;;;;19.24;57.72;99749.20;2264694;86;25629;-86
2021/09/16 05:15:50;;;;;;;18.55;10.30;;;;;;;19.26;57.75;99745.61;2272502;86;25638;-75
2021/09/16 05:19:15;;;;;;;14.73;10.98;;;;;;;19.30;57.83;99749.05;2270475;86;26404;-76
2021/09/16 05:22:39;;;;;;;21.82;10.78;;;;;;;19.30;57.86;99747.30;2276920;86;25689;-86
2021/09/16 05:26:00;;;;;;;15.18;10.88;;;;;;;19.31;57.95;99741.10;2246296;86;26079;-76
2021/09/16 05:29:35;;;;;;;12.95;10.60;;;;;;;19.33;58.12;99744.56;2270564;86;29881;-81
2021/09/16 05:32:59;;;;;;;14.65;10.90;;;;;;;19.35;58.25;99735.30;2249769;86;26312;-75
2021/09/16 05:36:20;;;;;;;17.52;10.80;;;;;;;19.39;58.32;99739.59;2258463;86;25693;-79
2021/09/16 05:39:40;;;;;;;15.55;11.12;;;;;;;19.42;58.35;99746.14;2257437;86;31422;-75
2021/09/16 05:43:03;;;;;;;16.17;11.53;;;;;;;19.45;58.46;99746.07;2276948;85;25574;-76
2021/09/16 05:46:24;;;;;;;16.40;10.72;;;;;;;19.49;58.50;99752.16;2276394;86;25967;-75
2021/09/16 05:49:45;;;;;;;13.00;10.78;;;;;;;19.49;58.55;99749.05;2277376;86;30860;-79
2021/09/16 05:53:18;;;;;;;19.25;11.63;;;;;;;19.51;58.56;99745.07;2266979;86;25644;-84
2021/09/16 05:56:45;;;;;;;16.77;12.78;;;;;;;19.51;58.62;99736.69;2259000;86;26305;-74
2021/09/16 06:00:48;;;;;;;16.97;11.40;;;;;;;19.54;58.65;99723.83;2263516;85;26128;-76
2021/09/16 06:08:11;;;;;;;13.70;11.28;;;;;;;19.59;58.88;99712.24;2252995;86;25676;-76
2021/09/16 06:11:52;;;;;;;15.48;12.18;;;;;;;19.60;58.98;99702.53;2273301;86;26061;-79
2021/09/16 06:15:19;;;;;;;15.00;11.83;;;;;;;19.63;59.09;99690.59;2278403;86;25911;-83
2021/09/16 06:18:41;;;;;;;16.73;11.85;;;;;;;19.68;59.09;99697.11;2276778;86;26099;-76
2021/09/16 06:22:06;;;;;;;14.43;11.73;;;;;;;19.74;59.05;99696.51;2273902;86;25724;-80
2021/09/16 06:25:28;;;;;;;15.65;12.98;;;;;;;19.79;59.00;99702.53;2267556;86;25671;-75
2021/09/16 06:29:04;;;;;;;21.68;11.48;;;;;;;19.86;58.93;99699.28;2266689;86;26196;-75
2021/09/16 06:32:37;;;;;;;19.20;12.15;;;;;;;19.92;58.86;99699.13;2269632;86;25566;-75
2021/09/16 06:36:09;;;;;;;14.23;11.95;;;;;;;19.91;58.84;99709.31;2254885;86;25394;-82
2021/09/16 06:39:48;;;;;;;16.75;11.50;;;;;;;19.91;58.85;99725.61;2259581;86;26336;-90
2021/09/16 06:43:09;;;;;;;20.62;11.65;;;;;;;19.91;58.88;99730.91;2269513;86;26404;-87
2021/09/16 06:46:42;;;;;;;17.05;11.60;;;;;;;19.91;58.98;99726.51;2264512;86;25688;-80
2021/09/16 06:50:11;;;;;;;17.07;12.30;;;;;;;19.93;58.99;99722.02;2272743;86;25704;-76
2021/09/16 06:53:49;;;;;;;22.80;12.07;;;;;;;19.93;58.98;99737.90;2270906;86;26023;-77
2021/09/16 06:57:10;;;;;;;17.55;10.93;;;;;;;19.92;58.99;99740.59;2266193;86;25546;-79
2021/09/16 07:00:31;;;;;;;17.17;11.43;;;;;;;19.89;59.09;99734.06;2266416;86;25650;-81
2021/09/16 07:04:26;;;;;;;18.17;11.30;;;;;;;19.85;59.17;99742.52;2268883;86;26318;-76
2021/09/16 07:08:04;;;;;;;18.42;11.50;;;;;;;19.83;59.28;99742.14;2249393;86;26234;-82
2021/09/16 07:11:37;;;;;;;14.43;11.33;;;;;;;19.76;59.38;99744.92;2253514;86;25625;-74
2021/09/16 07:14:58;;;;;;;17.45;12.35;;;;;;;19.73;59.50;99754.25;2264902;87;25173;-78
2021/09/16 07:18:20;;;;;;;13.15;11.25;;;;;;;19.83;59.57;99752.27;2221296;88;25749;-96
2021/09/16 07:21:42;;;;;;;14.03;11.00;;;;;;;19.95;59.40;99739.20;2229816;88;26186;-90
2021/09/16 07:25:13;;;;;;;16.32;11.00;;;;;;;20.08;59.22;99726.50;2233935;86;25224;-90
2021/09/16 07:28:36;;;;;;;13.53;11.28;;;;;;;20.20;59.06;99715.61;2234766;88;25813;-86
2021/09/16 07:31:57;;;;;;;19.02;11.83;;;;;;;20.32;58.93;99714.41;2233207;88;25680;-77
2021/09/16 07:35:19;;;;;;;13.83;11.12;;;;;;;20.45;58.79;99716.70;2229040;88;25516;-73
2021/09/16 07:38:40;;;;;;;14.70;10.68;;;;;;;20.61;58.65;99715.83;2232474;87;25909;-74
2021/09/16 07:42:08;;;;;;;12.98;10.93;;;;;;;20.80;58.46;99720.63;2228361;88;25535;-85
2021/09/16 07:45:29;;;;;;;23.27;11.68;;;;;;;20.96;58.16;99716.16;2220561;88;25248;-90
2021/09/16 07:48:50;;;;;;;14.18;10.80;;;;;;;21.07;57.97;99712.31;2226531;88;25633;-91
2021/09/16 07:52:30;;;;;;;14.75;10.85;;;;;;;21.17;57.88;99717.29;2224500;88;25236;-90
2021/09/16 07:55:51;;;;;;;14.20;11.33;;;;;;;21.32;57.69;99720.38;2227309;88;25717;-77
2021/09/16 07:59:18;;;;;;;14.45;10.90;;;;;;;21.48;57.51;99722.13;2226823;88;25644;-85
2021/09/16 08:03:00;;;;;;;23.83;11.53;;;;;;;21.64;57.33;99721.59;2229790;88;25690;-74
2021/09/16 08:06:29;;;;;;;16.75;11.45;;;;;;;21.82;57.14;99714.81;2127420;89;25819;-73
2021/09/16 08:09:55;;;;;;;16.12;11.30;;;;;;;22.10;56.82;99717.39;2192051;89;25755;-80
2021/09/16 08:13:38;;;;;;;13.75;12.33;;;;;;;22.35;56.57;99716.59;2187255;88;26314;-86
2021/09/16 08:17:28;;;;;;;17.62;12.90;;;;;;;22.32;55.97;99716.70;2180117;89;25679;-91
2021/09/16 08:21:01;;;;;;;;;;;;;;;21.73;56.19;99716.43;2192368;88;25699;-90
2021/09/16 08:24:48;;;;;;;22.98;14.68;;;;;;;21.37;57.15;99723.34;2172167;89;25684;-90
2021/09/16 08:28:34;;;;;;;29.48;14.28;;;;;;;21.24;57.86;99720.63;2175180;90;25929;-82
2021/09/16 08:32:08;;;;;;;20.55;13.78;;;;;;;21.02;58.00;99716.41;2189558;90;25889;-79
2021/09/16 08:35:32;;;;;;;27.10;14.75;;;;;;;20.97;58.48;99720.99;2181188;90;25678;-79
2021/09/16 08:38:53;;;;;;;20.27;13.83;;;;;;;21.00;58.59;99728.86;2189350;90;25762;-79
2021/09/16 08:42:17;;;;;;;23.42;13.50;;;;;;;21.09;59.00;99725.91;2189155;90;25759;-85
2021/09/16 08:45:47;;;;;;;22.15;14.83;;;;;;;21.37;58.89;99723.80;2189633;90;25768;-78
2021/09/16 08:49:08;;;;;;;15.75;13.55;;;;;;;21.34;58.65;99719.45;2148578;92;25792;-81
2021/09/16 08:52:32;;;;;;;22.00;14.18;;;;;;;21.25;59.08;99713.53;2156138;90;26217;-79
2021/09/16 08:55:56;;;;;;;25.40;14.85;;;;;;;21.17;59.00;99701.84;2176685;90;25746;-79
2021/09/16 08:59:50;;;;;;;21.02;14.20;;;;;;;21.06;59.51;99704.83;2159960;90;26189;-80
2021/09/16 09:03:11;;;;;;;24.18;15.05;;;;;;;21.11;59.79;99704.67;2207742;88;26217;-77
2021/09/16 09:06:38;;;;;;;26.23;15.83;;;;;;;21.17;59.57;99704.50;2238748;88;25720;-76
2021/09/16 09:09:59;;;;;;;19.82;15.18;;;;;;;21.05;59.72;99706.18;2239697;88;25710;-75
2021/09/16 09:13:34;;;;;;;27.00;15.53;;;;;;;20.94;59.80;99700.75;2238157;88;25772;-77
2021/09/16 09:16:58;;;;;;;21.17;14.83;;;;;;;20.86;60.36;99704.09;2237853;87;25740;-77
2021/09/16 09:20:19;;;;;;;21.23;15.35;;;;;;;20.95;60.28;99697.63;2241006;86;25542;-77
2021/09/16 09:24:32;;;;;;;18.82;14.93;;;;;;;21.10;60.36;99695.86;2246268;85;25787;-76
2021/09/16 09:28:13;;;;;;;29.77;15.55;;;;;;;21.25;60.03;99689.20;2218844;86;26241;-82
2021/09/16 09:31:44;;;;;;;46.88;17.65;;;;;;;21.20;60.07;99691.16;2233615;86;25968;-82
2021/09/16 09:35:11;;;;;;;22.30;15.45;;;;;;;21.02;60.74;99689.91;2255541;87;25821;-81
2021/09/16 09:38:32;;;;;;;24.57;15.53;;;;;;;21.08;60.80;99681.78;2271387;86;25593;-78
2021/09/16 09:41:53;;;;;;;25.90;14.73;;;;;;;21.48;60.37;99684.54;2275408;86;25656;-79
2021/09/16 09:49:34;;;;;;;29.80;15.88;;;;;;;21.89;59.62;99695.57;2258075;87;25712;-76
2021/09/16 09:53:50;;;;;;;19.90;15.28;;;;;;;21.91;59.46;99690.63;2253990;86;25593;-79
2021/09/16 09:57:41;;;;;;;20.37;14.98;;;;;;;22.15;59.50;99694.72;2264102;86;32394;-81
2021/09/16 10:01:41;;;;;;;22.07;14.85;;;;;;;22.71;58.50;99691.78;2269758;86;26128;-85
2021/09/16 10:05:46;;;;;;;22.20;16.42;;;;;;;22.72;57.38;99688.23;2278534;86;45187;-83
2021/09/16 10:09:13;;;;;;;28.02;16.75;;;;;;;22.31;58.52;99698.58;2281225;86;25643;-83
2021/09/16 10:12:35;;;;;;;19.52;15.38;;;;;;;22.13;58.79;99698.70;2196540;89;25726;-81
2021/09/16 10:16:03;;;;;;;19.60;15.25;;;;;;;21.91;59.20;99697.73;2195301;90;25595;-80
2021/09/16 10:19:19;;;;;;;19.98;15.48;;;;;;;21.93;59.47;99690.56;2195083;89;26490;-82
2021/09/16 10:31:24;;;;;;;20.27;15.68;;;;;;;21.93;60.54;99695.87;2182304;90;25786;-81
2021/09/16 10:34:56;;;;;;;23.05;15.13;;;;;;;22.30;59.67;99697.28;2175862;90;25843;-81
2021/09/16 10:46:55;;;;;;;21.48;15.48;;;;;;;22.70;58.64;99700.69;2201084;89;25816;-82
2021/09/16 10:50:23;;;;;;;20.40;14.43;;;;;;;22.85;58.61;99699.27;2200653;88;25843;-84
2021/09/16 10:54:58;;;;;;;24.72;15.35;;;;;;;23.16;58.38;99700.31;2199810;88;25676;-84
2021/09/16 10:58:30;;;;;;;17.32;13.80;;;;;;;23.23;57.90;99701.80;2167117;91;25917;-86
2021/09/16 11:02:00;;;;;;;19.57;14.18;;;;;;;23.11;57.71;99712.91;2164610;90;26232;-83
2021/09/16 11:05:21;;;;;;;21.50;15.32;;;;;;;23.18;57.89;99714.86;2165786;91;25734;-81
2021/09/16 11:09:07;;;;;;;17.87;14.50;;;;;;;23.25;57.66;99706.61;2193625;88;25787;-81
2021/09/16 11:13:16;;;;;;;19.40;14.50;;;;;;;23.16;57.61;99707.43;2227603;87;25843;-80
2021/09/16 11:16:37;;;;;;;22.82;14.47;;;;;;;23.20;57.89;99701.92;2238783;87;25820;-81
2021/09/16 11:19:59;;;;;;;26.50;14.47;;;;;;;23.12;57.93;99704.47;2239728;88;25680;-86
2021/09/16 11:23:24;;;;;;;17.20;14.33;;;;;;;23.20;57.83;99709.04;2225175;88;25871;-90
2021/09/16 11:26:47;;;;;;;22.17;16.37;;;;;;;23.24;57.79;99700.01;2230487;88;25782;-82
2021/09/16 11:30:19;;;;;;;24.25;15.43;;;;;;;23.13;57.91;99695.11;2238596;88;25732;-84
2021/09/16 11:33:48;;;;;;;21.93;14.75;;;;;;;23.05;58.18;99691.87;2236765;88;25815;-82
2021/09/16 11:41:15;;;;;;;18.07;14.58;;;;;;;23.20;58.45;99687.30;2298775;81;25490;-90
2021/09/16 11:45:31;;;;;;;31.27;15.72;;;;;;;23.23;58.23;99687.65;2285515;85;25695;-86
2021/09/16 11:49:04;;;;;;;32.63;15.40;;;;;;;23.14;58.45;99686.20;2294574;83;26124;-80
2021/09/16 11:52:40;;;;;;;21.60;14.65;;;;;;;23.12;58.61;99683.19;2326631;85;25745;-82
2021/09/16 11:56:05;;;;;;;27.90;13.78;;;;;;;23.20;58.70;99678.45;2306065;85;25699;-80
2021/09/16 11:59:35;;;;;;;24.75;15.20;;;;;;;23.40;58.70;99674.54;2304358;85;25326;-84
2021/09/16 12:02:59;;;;;;;26.33;15.60;;;;;;;23.63;58.33;99666.95;2290843;85;25693;-80
2021/09/16 12:06:20;;;;;;;20.43;14.95;;;;;;;24.06;57.88;99663.81;2324296;82;25564;-87
2021/09/16 12:09:52;;;;;;;;;;;;;;;;;;;;;
2021/09/16 12:13:46;;;;;;;15.95;14.35;;;;;;;25.64;57.02;99659.18;2336297;83;25658;-81
2021/09/16 12:17:16;;;;;;;23.02;14.40;;;;;;;26.74;55.16;99655.29;2286470;85;25960;-83
2021/09/16 12:21:01;;;;;;;21.23;15.15;;;;;;;26.97;52.88;99652.69;2296450;85;25833;-84
2021/09/16 12:24:30;;;;;;;18.07;13.35;;;;;;;27.25;52.60;99655.55;2289807;85;26286;-84
2021/09/16 12:28:15;;;;;;;22.13;16.05;;;;;;;27.28;51.64;99650.03;2292311;83;25698;-82
2021/09/16 12:32:21;;;;;;;23.05;14.38;;;;;;;27.21;51.39;99645.98;2268179;84;26456;-82
2021/09/16 12:35:59;;;;;;;17.25;12.90;;;;;;;27.14;51.16;99648.63;2306386;83;26040;-81
2021/09/16 12:44:04;;;;;;;14.63;12.95;;;;;;;26.93;51.13;99635.06;2289665;83;25767;-82
2021/09/16 12:47:57;;;;;;;18.67;12.13;;;;;;;26.72;50.89;99633.96;2216336;88;26155;-82
2021/09/16 12:52:23;;;;;;;18.45;11.73;;;;;;;26.73;51.35;99635.71;2220606;86;26557;-83
2021/09/16 12:56:20;;;;;;;12.63;11.38;;;;;;;26.92;51.03;99645.38;2205878;86;26209;-82
2021/09/16 13:08:27;;;;;;;;;;;;;;;;;;;;;
2021/09/16 13:11:46;;;;;;;12.95;9.60;;;;;;;26.72;50.60;99626.42;2189735;85;25667;-83
2021/09/16 13:15:16;;;;;;;11.80;10.03;;;;;;;26.81;50.64;99620.58;2219516;88;25591;-83
2021/09/16 13:18:40;;;;;;;11.97;9.48;;;;;;;26.78;50.42;99618.06;2206863;88;25791;-83
2021/09/16 13:26:03;;;;;;;11.80;9.13;;;;;;;26.28;50.79;99616.30;2135355;89;25729;-84
2021/09/16 13:29:45;;;;;;;18.25;10.78;;;;;;;26.17;50.96;99616.88;2138533;90;25721;-88
2021/09/16 13:33:14;;;;;;;11.20;8.73;;;;;;;26.09;51.12;99612.42;2122244;90;25813;-84
2021/09/16 13:36:49;;;;;;;22.50;12.98;;;;;;;26.03;51.22;99612.73;2117346;90;26642;-81
2021/09/16 13:44:08;;;;;;;19.32;13.28;;;;;;;25.60;52.15;99619.77;2174325;88;26261;-84
2021/09/16 13:47:46;;;;;;;19.92;14.23;;;;;;;25.30;52.99;99623.97;2206802;88;25673;-90
2021/09/16 13:51:17;;;;;;;21.48;14.38;;;;;;;25.02;53.63;99623.95;2204117;87;26544;-83
2021/09/16 13:54:52;;;;;;;15.95;12.93;;;;;;;24.82;54.35;99615.56;2230996;87;25898;-83
2021/09/16 13:58:16;;;;;;;19.70;15.18;;;;;;;24.60;55.18;99619.68;2163543;89;25728;-84
2021/09/16 14:01:39;;;;;;;26.48;16.50;;;;;;;24.38;56.18;99621.11;2175713;85;26402;-85
2021/09/16 14:05:01;;;;;;;24.05;14.80;;;;;;;24.22;57.12;99635.58;2276202;84;25679;-83
2021/09/16 14:08:30;;;;;;;28.15;16.57;;;;;;;23.90;58.54;99622.84;2254316;85;25788;-82
2021/09/16 14:11:56;;;;;;;22.93;15.18;;;;;;;23.63;59.69;99615.06;2254272;85;26024;-81
2021/09/16 14:15:17;;;;;;;25.00;14.85;;;;;;;23.47;60.62;99617.49;2252379;85;25774;-83
2021/09/16 14:22:40;;;;;;;18.48;14.73;;;;;;;23.42;61.70;99619.49;2286634;84;25751;-83
2021/09/16 14:26:40;;;;;;;18.55;13.93;;;;;;;23.38;61.95;99623.66;2277246;84;26180;-86
2021/09/16 14:30:32;;;;;;;22.58;14.55;;;;;;;23.30;62.26;99619.52;2242833;86;26211;-86
2021/09/16 14:34:12;;;;;;;18.12;14.30;;;;;;;23.30;62.64;99623.98;2225629;85;26017;-87
2021/09/16 14:38:17;;;;;;;18.48;14.25;;;;;;;23.18;63.19;99625.79;2252530;85;25901;-89
2021/09/16 14:41:52;;;;;;;18.32;12.07;;;;;;;23.06;63.71;99625.36;2239537;85;26035;-83
2021/09/16 14:45:47;;;;;;;12.28;9.40;;;;;;;23.00;64.11;99624.73;2218122;88;25729;-83
2021/09/16 14:49:11;;;;;;;11.03;6.92;;;;;;;22.82;64.44;99631.61;2229283;86;25857;-82
2021/09/16 14:52:35;;;;;;;12.88;7.00;;;;;;;22.54;64.86;99626.00;2237030;85;26437;-82
2021/09/16 15:00:18;;;;;;;6.03;5.28;;;;;;;22.43;65.46;99614.92;2187072;89;25679;-83
2021/09/16 15:08:01;;;;;;;5.53;5.05;;;;;;;22.59;65.51;99622.72;2146995;89;26038;-84
2021/09/16 15:11:41;;;;;;;6.30;5.00;;;;;;;22.68;65.58;99613.98;2070264;93;25792;-82
2021/09/16 15:15:32;;;;;;;6.47;5.10;;;;;;;22.80;65.45;99614.38;2073503;93;25992;-83
2021/09/16 15:18:56;;;;;;;3.90;3.20;;;;;;;22.76;65.44;99617.23;2045883;93;25867;-81
2021/09/16 15:22:37;;;;;;;5.05;3.58;;;;;;;22.74;65.27;99614.61;2046447;94;25824;-83
2021/09/16 15:26:05;;;;;;;3.85;3.42;;;;;;;22.74;65.36;99612.42;2066950;92;26125;-82
2021/09/16 15:29:42;;;;;;;4.42;3.37;;;;;;;22.63;65.64;99608.86;2100716;92;26075;-88
2021/09/16 15:33:06;;;;;;;6.47;3.12;;;;;;;22.62;65.70;99606.67;2098575;93;26222;-83
2021/09/16 15:36:29;;;;;;;5.40;2.70;;;;;;;22.57;65.93;99610.41;2106052;91;26014;-84
2021/09/16 15:40:01;;;;;;;2.75;2.55;;;;;;;22.47;66.07;99612.55;2185095;87;26235;-85
2021/09/16 15:57:22;;;;;;;9.60;4.22;;;;;;;22.04;67.36;99623.83;2459621;78;28130;-85
2021/09/16 16:01:02;;;;;;;5.28;4.03;;;;;;;21.93;67.44;99614.92;2346386;82;25644;-82
2021/09/16 16:08:52;;;;;;;;;;;;;;;;;;;;;
2021/09/16 16:12:19;;;;;;;5.78;5.17;;;;;;;21.95;67.91;99614.42;2187903;88;26378;-82
2021/09/16 16:15:54;;;;;;;5.17;4.78;;;;;;;21.97;68.14;99608.61;2140591;89;25380;-84
2021/09/16 16:19:31;;;;;;;5.62;5.08;;;;;;;21.95;68.22;99608.26;2153602;89;25619;-84
2021/09/16 16:23:18;;;;;;;9.28;5.37;;;;;;;21.96;68.40;99608.19;2206608;87;25693;-83
2021/09/16 16:27:02;;;;;;;6.40;5.83;;;;;;;21.88;68.68;99614.23;2176652;88;25964;-83
2021/09/16 16:31:00;;;;;;;5.85;5.35;;;;;;;21.87;68.86;99612.52;2180483;88;25733;-85
2021/09/16 16:34:57;;;;;;;5.78;4.92;;;;;;;21.83;69.05;99617.50;2178850;88;25882;-82
2021/09/16 16:38:47;;;;;;;7.08;5.17;;;;;;;21.78;69.27;99611.50;2188873;87;25930;-82
2021/09/16 16:42:19;;;;;;;5.87;5.28;;;;;;;21.76;69.41;99612.00;2212248;87;26174;-82
2021/09/16 16:46:03;;;;;;;5.50;4.75;;;;;;;21.72;69.60;99611.23;2233348;86;25807;-82
2021/09/16 16:49:35;;;;;;;6.60;5.20;;;;;;;21.62;69.94;99612.01;2174633;87;26100;-82
2021/09/16 16:52:58;;;;;;;5.30;4.85;;;;;;;21.50;70.14;99605.81;2169981;88;26078;-87
2021/09/16 16:56:35;;;;;;;6.30;4.75;;;;;;;21.52;70.18;99619.87;2162777;88;26026;-82
2021/09/16 17:00:15;;;;;;;5.50;4.22;;;;;;;21.52;70.37;99615.03;2167381;88;25977;-82
2021/09/16 17:03:51;;;;;;;4.37;3.35;;;;;;;21.47;70.41;99622.28;2169775;87;25757;-83
2021/09/16 17:07:25;;;;;;;4.72;3.17;;;;;;;21.38;70.71;99618.14;2172548;87;26129;-82
2021/09/16 17:11:16;;;;;;;2.65;2.35;;;;;;;21.27;70.72;99609.65;2201271;86;25603;-87
2021/09/16 17:14:56;;;;;;;3.40;2.33;;;;;;;21.27;70.84;99623.77;2184422;87;25763;-82
2021/09/16 17:18:18;;;;;;;4.50;2.52;;;;;;;21.25;70.87;99620.75;2174385;87;25767;-91
2021/09/16 17:21:59;;;;;;;3.70;2.60;;;;;;;21.21;70.87;99619.98;2177485;87;26398;-82
2021/09/16 17:25:47;;;;;;;4.87;2.40;;;;;;;21.16;70.89;99618.81;2195839;84;27252;-84
2021/09/16 17:29:10;;;;;;;2.90;2.70;;;;;;;21.16;70.93;99614.84;2257169;84;26269;-86
2021/09/16 17:32:33;;;;;;;3.33;2.47;;;;;;;21.24;70.97;99617.23;2270755;85;26185;-84
2021/09/16 17:36:47;;;;;;;5.12;2.55;;;;;;;21.23;70.81;99617.70;2295758;84;25754;-85
2021/09/16 17:40:12;;;;;;;3.35;3.08;;;;;;;21.18;70.81;99622.73;2329259;83;26048;-84
2021/09/16 17:43:45;;;;;;;8.08;6.35;;;;;;;21.17;70.80;99624.98;2265086;84;25886;-89